createdAt,value
2022-09-28T00:30:06.241Z,37
2022-09-28T00:45:43.467Z,38
2022-09-28T01:08:59.485Z,38.5
2022-09-28T01:47:46.159Z,39.5
2022-09-28T02:03:16.925Z,40.5
2022-09-28T02:34:18.442Z,41.5
2022-09-28T02:49:49.209Z,42.5
2022-09-28T03:20:50.689Z,41.5
2022-09-28T03:44:06.753Z,41.5
2022-09-28T04:22:53.519Z,42
2022-09-28T04:45:56.417Z,44
2022-09-28T05:01:40.339Z,43.5
2022-09-28T05:32:41.931Z,44
2022-09-28T06:11:28.809Z,44.5
2022-09-28T06:42:17.079Z,45.5
2022-09-28T06:57:47.846Z,46.5
2022-09-28T07:44:19.785Z,44.5
2022-09-28T07:59:50.395Z,44.5
2022-09-28T08:38:37.029Z,45.5
2022-09-28T09:02:06.160Z,45.5
2022-09-28T09:25:08.910Z,46.5
2022-09-28T09:56:16.775Z,44.5
2022-09-28T10:27:11.422Z,45
2022-09-28T10:58:19.250Z,44
2022-09-28T11:36:59.199Z,43
2022-09-28T12:08:13.609Z,44.5
2022-09-28T12:23:31.014Z,46
2022-09-28T12:54:45.389Z,46
2022-09-28T13:25:39.917Z,45
2022-09-28T13:56:41.057Z,45
2022-09-28T14:19:56.927Z,45.5
2022-09-28T14:43:12.804Z,45.5
2022-09-28T15:29:38.009Z,47
2022-09-28T15:53:07.104Z,47.5
2022-09-28T16:16:16.401Z,47
2022-09-28T16:54:56.300Z,47.5
2022-09-28T17:18:12.332Z,48
2022-09-28T17:57:12.075Z,46.5
2022-09-28T18:20:27.874Z,46
2022-09-28T18:51:16.018Z,44.5
2022-09-28T19:14:45.235Z,43.5
2022-09-28T19:53:25.369Z,43.5
2022-09-28T20:09:02.572Z,43.5
2022-09-28T20:32:11.934Z,44.5
2022-09-28T21:03:06.475Z,44.5
2022-09-28T21:41:52.745Z,43.5
2022-09-28T21:57:36.641Z,43.5
2022-09-28T22:36:09.725Z,43.5
2022-09-28T22:59:25.515Z,43.5
2022-09-28T23:38:11.900Z,42.5
